Terminal Aerodrome Forecast
Issued by NWS

Home | Current Version | Previous Version | Text Only | Print | Product List | Glossary On
Versions: 1 2 3 4 5 6 7 8 9 10 11 12 13 14 15 16
642
FTUS41 KBTV 171739
TAFMSS
TAF
KMSS 171739Z 1718/1818 VRB03KT P6SM FEW250
     FM180600 VRB03KT P6SM BKN110
     FM181100 05004KT 4SM -SN BR OVC035
     FM181200 05004KT 2SM -SN BR OVC025
     FM181300 05004KT 1 1/2SM -SN BR OVC020=

USA.gov is the U.S. government's official web portal to all federal, state and local government web resources and services.